Startline

Dinosaur Valley Half Marathon

Drumheller, AB - 10 septembre 2017

ÉpreuveRangTemps officiel DossardNomDivision Rang/sexeRang/division Puce
Half 1/138 1:28:24 94 NICOL, Jeffrey M2029 1/60 1/9 1:28:22
Half 2/138 1:33:23 10 BICKLEY, Ed M5059 2/60 1/15 1:33:20
Half 3/138 1:36:08 149 PARKER, Philip M4049 3/60 1/12 1:36:04
Half 4/138 1:36:48 150 REYNOLDS, Jess F2029 1/78 1/29 1:36:46
Half 5/138 1:37:27 105 ROSE, James M3039 4/60 1/15 1:37:25
Half 6/138 1:39:51 112 SPAFFORD, Michael M4049 5/60 2/12 1:39:47
Half 7/138 1:40:32 109 SEREDA, Nick M3039 6/60 2/15 1:40:28
Half 8/138 1:40:43 36 FAH, Catherine F5059 2/78 1/10 1:40:42
Half 9/138 1:41:57 155 TOWNSEND, Tracy F4049 3/78 1/19 1:41:55
Half 10/138 1:42:06 23 CRIPPS, Abe M4049 7/60 3/12 1:42:04
Half 11/138 1:42:25 160 BLACKBURN, Christopher M3039 8/60 3/15 1:42:22
Half 12/138 1:42:28 65 KONJOLKA, Rachelle F2029 4/78 2/29 1:42:26
Half 13/138 1:42:45 80 MAYER, Allan M60+ 9/60 1/8 1:42:42
Half 14/138 1:44:25 30 DIRKS, Randy M4049 10/60 4/12 1:44:21
Half 15/138 1:47:18 159 FREY, Matthew M3039 11/60 4/15 1:47:15
Half 16/138 1:48:24 162 CHANG, Anne F4049 5/78 2/19 1:48:20
Half 17/138 1:51:33 151 SIKKES, Krista F3039 6/78 1/20 1:51:29
Half 18/138 1:51:57 31 DIRKS, Sarah F3039 7/78 2/20 1:51:54
Half 19/138 1:52:01 37 FEIHLE, Mike M5059 12/60 2/15 1:51:56
Half 20/138 1:53:43 84 MCNEIL, Carla F2029 8/78 3/29 1:53:40
Half 21/138 1:53:48 44 GIRARD, Philip M5059 13/60 3/15 1:53:42
Half 22/138 1:53:59 64 KNOLL, Ken M5059 14/60 4/15 1:53:56
Half 23/138 1:54:01 157 MEG, Derek M5059 15/60 5/15 1:53:57
Half 24/138 1:55:50 57 JONES, Greg M60+ 16/60 2/8 1:55:47
Half 25/138 1:56:14 6 BAER, Thomas M2029 17/60 2/9 1:56:04
Half 26/138 1:56:24 142 GIBSON, Matthew M3039 18/60 5/15 1:56:14
Half 27/138 1:56:37 40 FREDINE, Jocelyn F3039 9/78 3/20 1:56:32
Half 28/138 1:57:00 26 DAWE, Donna F4049 10/78 3/19 1:56:56
Half 29/138 1:57:11 54 JAGER, Kerry F2029 11/78 4/29 1:57:06
Half 30/138 1:57:25 32 DOUCETTE, Eric M4049 19/60 5/12 1:57:22
Half 31/138 1:57:31 115 STROBL, Kathy F4049 12/78 4/19 1:57:23
Half 32/138 1:57:39 71 LETTICE, Matthew M2029 20/60 3/9 1:57:31
Half 33/138 1:58:27 76 MACKENZIE, Michael M3039 21/60 6/15 1:58:25
Half 34/138 1:58:36 93 NELSON, Chris M3039 22/60 7/15 1:58:31
Half 35/138 1:59:11 8 BERCHA, Robert M5059 23/60 6/15 1:59:06
Half 36/138 1:59:51 12 BIERNOTH, Ines Caren F2029 13/78 5/29 1:59:44
Half 37/138 2:01:42 143 HEINRICHS, Eugene M60+ 24/60 3/8 2:01:32
Half 38/138 2:02:02 129 VERBONAC, Kiera F2029 14/78 6/29 2:01:58
Half 39/138 2:02:30 38 FERGUSON, Spencer M2029 25/60 4/9 2:02:23
Half 40/138 2:02:36 29 DEWAR, Erin F3039 15/78 4/20 2:02:34
Half 41/138 2:03:19 1 ACKERMAN, Lindsey F3039 16/78 5/20 2:03:13
Half 42/138 2:03:20 79 MARKUSOFF, Jason M3039 26/60 8/15 2:03:09
Half 43/138 2:04:38 20 CLARKE, Leandra F2029 17/78 7/29 2:04:30
Half 44/138 2:04:49 121 ULICKI, Christopher M4049 27/60 6/12 2:04:40
Half 45/138 2:05:21 73 LOGODIN, Lindsay F3039 18/78 6/20 2:05:13
Half 46/138 2:06:32 75 MACISAAC, Kim F3039 19/78 7/20 2:06:28
Half 47/138 2:07:39 135 ZONDAG, Jennifer F4049 20/78 5/19 2:07:35
Half 48/138 2:08:27 21 COGGANS, Chris M5059 28/60 7/15 2:08:17
Half 49/138 2:08:53 163 KUSCHKE, Joham M5059 29/60 8/15 2:08:49
Half 50/138 2:09:00 147 NASH, Lisa F4049 21/78 6/19 2:08:53
Half 51/138 2:09:48 139 DESCHRYVER, Lorilee F4049 22/78 7/19 2:09:34
Half 52/138 2:10:05 114 STAYURA, Lorrie F5059 23/78 2/10 2:09:48
Half 53/138 2:10:44 22 CONWAY, Patrick M4049 30/60 7/12 2:10:28
Half 54/138 2:11:13 52 HODGES, Kyleen F2029 24/78 8/29 2:11:04
Half 55/138 2:11:39 116 STRONG, Jeffery M60+ 31/60 4/8 2:11:29
Half 56/138 2:11:50 119 TAYLOR, Don M60+ 32/60 5/8 2:11:38
Half 57/138 2:11:50 90 MUNZ, Susan F5059 25/78 3/10 2:11:38
Half 58/138 2:12:13 126 VAN DER WEIJ, Michelle F2029 26/78 9/29 2:11:56
Half 59/138 2:12:32 45 GNAPP, Tom M3039 33/60 9/15 2:12:24
Half 60/138 2:13:10 95 O'NEILL, Daniel M5059 34/60 9/15 2:12:58
Half 61/138 2:14:41 87 MORBECK, Sheri F4049 27/78 8/19 2:14:35
Half 62/138 2:15:06 110 SHUTKO, Ryan M3039 35/60 10/15 2:14:59
Half 63/138 2:15:18 19 CLARK, Mike M4049 36/60 8/12 2:15:13
Half 64/138 2:15:53 148 NOU, Sarith M3039 37/60 11/15 2:15:47
Half 65/138 2:16:31 59 KANNENBERG, Erin F3039 28/78 8/20 2:16:24
Half 66/138 2:16:34 158 SUNTJENS-TURREN, Trina F4049 29/78 9/19 2:16:16
Half 67/138 2:17:13 156 WILLSON, Rick M5059 38/60 10/15 2:17:02
Half 68/138 2:17:22 11 BIDULOCK, Darryl M3039 39/60 12/15 2:17:15
Half 69/138 2:17:34 134 ZANIECKI, Tom M4049 40/60 9/12 2:17:28
Half 70/138 2:18:22 74 LOWE, Madison F2029 30/78 10/29 2:18:15
Half 71/138 2:18:39 50 HARDY, Katherine F4049 31/78 10/19 2:18:25
Half 72/138 2:18:58 17 CHEONG, Ben M5059 41/60 11/15 2:18:46
Half 73/138 2:19:10 96 O'NEILL, Shelley F4049 32/78 11/19 2:18:58
Half 74/138 2:19:13 101 RETIEF, Mila F2029 33/78 11/29 2:19:06
Half 75/138 2:19:13 100 RETIEF, Malcolm M5059 42/60 12/15 2:19:05
Half 76/138 2:19:13 122 VAN DEN BERG, Hendrik M5059 43/60 13/15 2:19:04
Half 77/138 2:19:14 123 VAN DEN BERG, Henri M2029 44/60 5/9 2:19:05
Half 78/138 2:19:41 47 GORDILLO-URIZAR, Leslie F2029 34/78 12/29 2:19:23
Half 79/138 2:20:10 25 DAVIDSON, Julie F3039 35/78 9/20 2:19:52
Half 80/138 2:21:11 145 MARSH, Kim F5059 36/78 4/10 2:21:06
Half 81/138 2:21:52 15 CASTILLO, Brigo M-U20 45/60 1/1 2:21:47
Half 82/138 2:22:01 136 CAPUTO, Connie F5059 37/78 5/10 2:21:45
Half 83/138 2:22:01 138 CROWCHILD, Pearl F5059 38/78 6/10 2:21:44
Half 84/138 2:22:58 130 WARD, Jennifer F2029 39/78 13/29 2:22:52
Half 85/138 2:22:58 88 MOREIRA, Fernando M3039 46/60 13/15 2:22:45
Half 86/138 2:23:06 144 KIPLING, Heather F3039 40/78 10/20 2:22:57
Half 87/138 2:23:11 72 LOEWEN, Dean M5059 47/60 14/15 2:23:02
Half 88/138 2:23:18 140 DONSKY, Michele F5059 41/78 7/10 2:23:06
Half 89/138 2:23:19 154 STAFFORD, Karen F5059 42/78 8/10 2:23:06
Half 90/138 2:23:19 152 SKILNICK-MIERAU, Tammy F4049 43/78 12/19 2:23:06
Half 91/138 2:25:09 106 ROSSI, Lori F4049 44/78 13/19 2:25:06
Half 92/138 2:25:09 33 DUGAN, Annie F5059 45/78 9/10 2:25:06
Half 93/138 2:25:21 141 DUROCHER, Jackie F5059 46/78 10/10 2:25:12
Half 94/138 2:25:50 83 MCGIVERN, Len M5059 48/60 15/15 2:25:38
Half 95/138 2:26:00 82 MCGALE, Karen F4049 47/78 14/19 2:25:50
Half 96/138 2:28:07 13 BULL, Georgia F2029 48/78 14/29 2:27:59
Half 97/138 2:28:07 51 HART, Christina F4049 49/78 15/19 2:27:51
Half 98/138 2:29:22 153 SNOW, Katt F2029 50/78 15/29 2:29:08
Half 99/138 2:29:52 56 JOHNSTON, Chris M2029 49/60 6/9 2:29:41
Half 100/138 2:29:52 24 CURLE, Heather F2029 51/78 16/29 2:29:42
Half 101/138 2:29:56 146 MIERAU, Cam M4049 50/60 10/12 2:29:42
Half 102/138 2:29:56 161 ORR, Ian M60+ 51/60 6/8 2:29:42
Half 103/138 2:30:23 127 VAN EGDOM, Kayla F2029 52/78 17/29 2:30:12
Half 104/138 2:30:23 78 MALOWSKI, Brendan M2029 52/60 7/9 2:30:18
Half 105/138 2:30:28 120 THOMPSON, Jennifer F2029 53/78 18/29 2:30:22
Half 106/138 2:30:37 69 LAMB, Cole M2029 53/60 8/9 2:30:25
Half 107/138 2:30:41 61 KENNEDY, Rudy M60+ 54/60 7/8 2:30:38
Half 108/138 2:30:57 53 HOGAN, Stacey F3039 54/78 11/20 2:30:40
Half 109/138 2:31:04 49 GRIMES, Shawna F4049 55/78 16/19 2:31:02
Half 110/138 2:31:37 137 COSTA, Natalie F2029 56/78 19/29 2:31:24
Half 111/138 2:32:02 14 BYMA, Anna Marie F3039 57/78 12/20 2:31:55
Half 112/138 2:32:37 3 ALBERTYN, Adriaan M60+ 55/60 8/8 2:32:36
Half 113/138 2:32:37 4 ALBERTYN, Margarethe F2029 58/78 20/29 2:32:35
Half 114/138 2:33:12 85 MOORE, Ann F3039 59/78 13/20 2:32:58
Half 115/138 2:34:41 111 SNELSON, Kerry F4049 60/78 17/19 2:34:31
Half 116/138 2:35:12 48 GORDON, Brittany F2029 61/78 21/29 2:34:57
Half 117/138 2:35:15 28 DEVERA, Patrick M3039 56/60 14/15 2:35:09
Half 118/138 2:41:10 124 VAN DER KLEY, Andrew M4049 57/60 11/12 2:40:59
Half 119/138 2:41:10 125 VAN DER KLEY, Kelsey F3039 62/78 14/20 2:41:00
Half 120/138 2:42:12 16 CHENEY, Beth-Ann F2029 63/78 22/29 2:41:58
Half 121/138 2:42:15 43 GARCIA, Kelsey F2029 64/78 23/29 2:42:01
Half 122/138 2:45:23 55 JAREMKO, Sara F3039 65/78 15/20 2:45:11
Half 123/138 2:45:31 131 WHITEHOUSE, Lisa F3039 66/78 16/20 2:45:11
Half 124/138 2:45:34 35 ESCHAK, Tiffany F2029 67/78 24/29 2:45:16
Half 125/138 2:46:10 104 ROCKBURN, Lisa F4049 68/78 18/19 2:46:06
Half 126/138 2:46:13 66 KOSMENKO, Dallas F3039 69/78 17/20 2:45:54
Half 127/138 2:47:00 81 MAZZOCCHI, Derek M3039 58/60 15/15 2:46:41
Half 128/138 2:50:46 2 ADKIN, Megan F2029 70/78 25/29 2:50:40
Half 129/138 2:50:50 117 SWINKELS, Amy F3039 71/78 18/20 2:50:38
Half 130/138 2:52:06 132 WIRACHOWSKY, Tiffany F2029 72/78 26/29 2:51:57
Half 131/138 2:54:00 63 KLASSEN, Emily F2029 73/78 27/29 2:53:45
Half 132/138 2:54:04 103 ROBERTS, Kevin M4049 59/60 12/12 2:53:49
Half 133/138 2:56:33 108 SCHMIDT, Stephanie F3039 74/78 19/20 2:56:20
Half 134/138 2:57:23 39 FOURNIER, Shari F4049 75/78 19/19 2:57:16
Half 135/138 3:03:11 58 JONES, Zach M2029 60/60 9/9 3:03:04
Half 136/138 3:05:17 118 TATTERTON, Nicole F2029 76/78 28/29 3:05:12
Half 137/138 3:05:20 34 ESCHAK, Andrea F2029 77/78 29/29 3:05:15
Half 138/138 3:21:03 27 DEVERA, Kelly F3039 78/78 20/20 3:20:58